Time;durP1;ratioP1;P1;durP2;ratioP2;P2;SDS_P1;SDS_P2;PMS_P1;PMS_P2;Temp;Humidity;BMP_temperature;BMP_pressure;BME280_temperature;BME280_humidity;BME280_pressure;Samples;Min_cycle;Max_cycle;Signal;HPM_P1;HPM_P2
2022/05/22 00:01:32;;;;;;;27.58;9.57;;;;;;;;;;4351851;33;20317;-69
2022/05/22 00:03:57;;;;;;;21.77;9.27;;;;;;;;;;4364517;32;20070;-69
2022/05/22 00:06:22;;;;;;;21.77;8.80;;;;;;;;;;4357758;32;20028;-69
2022/05/22 00:08:48;;;;;;;;;;;;;;;;;;4349397;32;20151;-69
2022/05/22 00:11:13;;;;;;;24.58;8.63;;;;;;;;;;4348362;32;20306;-69
2022/05/22 00:13:38;;;;;;;19.87;8.77;;;;;;;;;;4348186;33;20053;-69
2022/05/22 00:18:47;;;;;;;20.37;7.97;;;;;;;;;;4364174;32;20038;-69
2022/05/22 00:21:12;;;;;;;26.20;7.05;;;;;;;;;;4362567;32;20087;-69
2022/05/22 00:23:37;;;;;;;;;;;;;;;;;;4352325;32;20209;-69
2022/05/22 00:26:02;;;;;;;24.33;7.32;;;;;;;;;;4360476;32;19943;-69
2022/05/22 00:28:27;;;;;;;17.90;6.55;;;;;;;;;;4349223;32;20067;-69
2022/05/22 00:30:52;;;;;;;;;;;;;;;;;;4352070;33;20032;-69
2022/05/22 00:33:17;;;;;;;22.90;6.32;;;;;;;;;;4364483;32;19939;-69
2022/05/22 00:35:43;;;;;;;20.42;7.65;;;;;;;;;;4364491;32;20040;-70
2022/05/22 00:40:53;;;;;;;16.12;6.25;;;;;;;;;;4360750;33;19935;-68
2022/05/22 00:43:25;;;;;;;19.35;7.10;;;;;;;;;;4374103;32;20307;-67
2022/05/22 00:45:50;;;;;;;23.52;6.95;;;;;;;;;;4385898;32;20058;-68
2022/05/22 00:48:15;;;;;;;21.52;6.20;;;;;;;;;;4377913;32;20090;-68
2022/05/22 00:50:40;;;;;;;19.30;6.85;;;;;;;;;;4379399;32;20035;-68
2022/05/22 00:53:05;;;;;;;;;;;;;;;;;;4377191;32;20147;-69
2022/05/22 00:55:33;;;;;;;18.10;6.28;;;;;;;;;;4377421;32;19934;-68
2022/05/22 00:57:59;;;;;;;26.05;7.62;;;;;;;;;;4388426;32;20070;-69
2022/05/22 01:00:29;;;;;;;17.73;7.70;;;;;;;;;;4376860;32;20510;-68
2022/05/22 01:05:39;;;;;;;20.98;7.70;;;;;;;;;;4378970;32;20152;-68
2022/05/22 01:08:04;;;;;;;;;;;;;;;;;;4376952;32;20450;-68
2022/05/22 01:10:40;;;;;;;23.40;8.18;;;;;;;;;;4376739;32;19938;-68
2022/05/22 01:13:06;;;;;;;17.10;7.40;;;;;;;;;;4379115;32;20061;-71
2022/05/22 01:15:32;;;;;;;18.40;7.80;;;;;;;;;;4378777;32;20061;-67
2022/05/22 01:17:57;;;;;;;;;;;;;;;;;;4377849;32;20053;-68
2022/05/22 01:20:22;;;;;;;15.68;7.28;;;;;;;;;;4388688;32;19972;-68
2022/05/22 01:22:47;;;;;;;;;;;;;;;;;;4378613;32;20031;-68
2022/05/22 01:25:12;;;;;;;;;;;;;;;;;;4389796;32;19972;-67
2022/05/22 01:27:37;;;;;;;;;;;;;;;;;;4378280;32;19938;-68
2022/05/22 01:30:04;;;;;;;;;;;;;;;;;;4376879;32;19964;-68
2022/05/22 01:32:29;;;;;;;;;;;;;;;;;;4378693;32;19950;-68
2022/05/22 01:34:54;;;;;;;;;;;;;;;;;;4378805;32;19934;-68
2022/05/22 01:37:19;;;;;;;;;;;;;;;;;;4388778;32;19953;-68
2022/05/22 01:39:45;;;;;;;;;;;;;;;;;;4377178;32;20287;-67
2022/05/22 01:42:10;;;;;;;;;;;;;;;;;;4377669;32;19938;-67
2022/05/22 01:44:35;;;;;;;;;;;;;;;;;;4371102;32;19953;-67
2022/05/22 01:47:00;;;;;;;;;;;;;;;;;;4362604;32;19939;-67
2022/05/22 01:49:25;;;;;;;;;;;;;;;;;;4363319;32;19934;-68
2022/05/22 01:51:50;;;;;;;;;;;;;;;;;;4362091;32;19986;-68
2022/05/22 01:54:15;;;;;;;;;;;;;;;;;;4373088;32;19938;-66
2022/05/22 01:56:40;;;;;;;;;;;;;;;;;;4363728;32;19930;-68
2022/05/22 01:59:05;;;;;;;;;;;;;;;;;;4362450;32;19949;-67
2022/05/22 02:01:30;;;;;;;;;;;;;;;;;;4363531;32;19950;-67
2022/05/22 02:03:56;;;;;;;;;;;;;;;;;;4361999;33;19935;-67
2022/05/22 02:06:21;;;;;;;;;;;;;;;;;;4362034;32;20280;-67
2022/05/22 02:08:46;;;;;;;;;;;;;;;;;;4363045;32;19938;-67
2022/05/22 02:11:11;;;;;;;;;;;;;;;;;;4372555;32;19938;-67
2022/05/22 02:13:36;;;;;;;;;;;;;;;;;;4365668;32;19976;-67
2022/05/22 02:16:01;;;;;;;;;;;;;;;;;;4376201;32;19949;-67
2022/05/22 02:18:26;;;;;;;;;;;;;;;;;;4377189;32;19986;-68
2022/05/22 02:20:51;;;;;;;;;;;;;;;;;;4377412;32;19957;-67
2022/05/22 02:23:16;;;;;;;;;;;;;;;;;;4371942;32;19946;-67
2022/05/22 02:25:42;;;;;;;;;;;;;;;;;;4375716;32;20003;-68
2022/05/22 02:28:07;;;;;;;;;;;;;;;;;;4376789;32;20292;-68
2022/05/22 02:30:32;;;;;;;;;;;;;;;;;;4377064;32;19969;-69
2022/05/22 02:32:57;;;;;;;;;;;;;;;;;;4375801;32;19975;-68
2022/05/22 02:35:22;;;;;;;;;;;;;;;;;;4377470;32;19942;-68
2022/05/22 02:37:48;;;;;;;;;;;;;;;;;;4376229;32;19985;-69
2022/05/22 02:40:13;;;;;;;;;;;;;;;;;;4375906;32;19942;-69
2022/05/22 02:42:38;;;;;;;;;;;;;;;;;;4387144;32;19980;-68
2022/05/22 02:45:03;;;;;;;;;;;;;;;;;;4376953;32;19934;-68
2022/05/22 02:47:28;;;;;;;;;;;;;;;;;;4387018;32;20013;-67
2022/05/22 02:49:53;;;;;;;;;;;;;;;;;;4376772;32;20297;-67
2022/05/22 02:52:18;;;;;;;;;;;;;;;;;;4378323;32;19986;-68
2022/05/22 02:54:43;;;;;;;;;;;;;;;;;;4375115;32;20008;-67
2022/05/22 02:57:08;;;;;;;;;;;;;;;;;;4376637;32;19935;-68
2022/05/22 02:59:34;;;;;;;;;;;;;;;;;;4367110;32;19946;-68
2022/05/22 03:01:59;;;;;;;;;;;;;;;;;;4361040;32;19943;-68
2022/05/22 03:04:24;;;;;;;;;;;;;;;;;;4361925;32;20331;-67
2022/05/22 03:06:49;;;;;;;;;;;;;;;;;;4362160;32;19986;-67
2022/05/22 03:09:14;;;;;;;;;;;;;;;;;;4360930;33;19935;-68
2022/05/22 03:11:40;;;;;;;;;;;;;;;;;;4372899;32;20277;-69
2022/05/22 03:14:05;;;;;;;;;;;;;;;;;;4360589;32;20556;-68
2022/05/22 03:16:30;;;;;;;;;;;;;;;;;;4361046;32;19943;-68
2022/05/22 03:18:55;;;;;;;;;;;;;;;;;;4361848;32;19961;-69
2022/05/22 03:21:20;;;;;;;;;;;;;;;;;;4360717;32;19949;-68
2022/05/22 03:23:46;;;;;;;;;;;;;;;;;;4360162;33;19946;-69
2022/05/22 03:26:11;;;;;;;;;;;;;;;;;;4371486;32;19938;-67
2022/05/22 03:28:36;;;;;;;;;;;;;;;;;;4374491;32;19950;-67
2022/05/22 03:31:01;;;;;;;;;;;;;;;;;;4375061;32;19977;-67
2022/05/22 03:33:27;;;;;;;;;;;;;;;;;;4376550;32;19999;-67
2022/05/22 03:35:52;;;;;;;;;;;;;;;;;;4387393;32;19976;-67
2022/05/22 03:38:17;;;;;;;;;;;;;;;;;;4387232;32;19956;-67
2022/05/22 03:40:42;;;;;;;;;;;;;;;;;;4376189;32;19948;-67
2022/05/22 03:43:07;;;;;;;;;;;;;;;;;;4375168;32;20304;-68
2022/05/22 03:45:32;;;;;;;;;;;;;;;;;;4375170;32;19969;-68
2022/05/22 03:47:57;;;;;;;;;;;;;;;;;;4374976;32;19938;-67
2022/05/22 03:50:24;;;;;;;;;;;;;;;;;;4377005;32;20018;-68
2022/05/22 03:52:49;;;;;;;;;;;;;;;;;;4387950;32;19949;-67
2022/05/22 03:55:14;;;;;;;;;;;;;;;;;;4386378;32;19938;-68
2022/05/22 03:57:39;;;;;;;;;;;;;;;;;;4367452;32;20355;-69
2022/05/22 04:00:04;;;;;;;;;;;;;;;;;;4371256;32;19942;-68
2022/05/22 04:02:29;;;;;;;;;;;;;;;;;;4374117;32;19942;-67
2022/05/22 04:04:54;;;;;;;;;;;;;;;;;;4375621;32;19992;-67
2022/05/22 04:07:20;;;;;;;;;;;;;;;;;;4376653;32;19953;-68
2022/05/22 04:09:45;;;;;;;;;;;;;;;;;;4378804;32;20230;-67
2022/05/22 04:12:11;;;;;;;;;;;;;;;;;;4347006;33;19934;-67
2022/05/22 04:14:36;;;;;;;;;;;;;;;;;;4368828;32;20258;-67
2022/05/22 04:17:01;;;;;;;;;;;;;;;;;;4345131;33;19953;-67
2022/05/22 04:19:26;;;;;;;;;;;;;;;;;;4347236;33;20269;-68
2022/05/22 04:21:51;;;;;;;;;;;;;;;;;;4346994;33;19935;-68
2022/05/22 04:27:00;;;;;;;;;;;;;;;;;;4346683;33;19997;-67
2022/05/22 04:29:25;;;;;;;;;;;;;;;;;;4346610;33;19943;-68
2022/05/22 04:31:50;;;;;;;;;;;;;;;;;;4344935;33;20242;-68
2022/05/22 04:34:16;;;;;;;;;;;;;;;;;;4345416;33;19934;-68
2022/05/22 04:36:41;;;;;;;;;;;;;;;;;;4346707;33;19997;-68
2022/05/22 04:39:06;;;;;;;;;;;;;;;;;;4346920;32;19939;-68
2022/05/22 04:41:31;;;;;;;;;;;;;;;;;;4376345;32;19934;-68
2022/05/22 04:43:57;;;;;;;;;;;;;;;;;;4376582;32;19934;-68
2022/05/22 04:46:22;;;;;;;;;;;;;;;;;;4378054;32;20112;-68
2022/05/22 04:48:47;;;;;;;;;;;;;;;;;;4377436;32;20305;-68
2022/05/22 04:51:12;;;;;;;;;;;;;;;;;;4378553;32;19946;-68
2022/05/22 04:53:37;;;;;;;;;;;;;;;;;;4378703;32;19952;-68
2022/05/22 04:56:02;;;;;;;;;;;;;;;;;;4378535;32;19935;-68
2022/05/22 04:58:27;;;;;;;;;;;;;;;;;;4379153;32;19946;-69
2022/05/22 05:00:52;;;;;;;;;;;;;;;;;;4390510;32;20400;-69
2022/05/22 05:03:18;;;;;;;;;;;;;;;;;;4377388;32;19952;-68
2022/05/22 05:05:43;;;;;;;;;;;;;;;;;;4376994;32;19990;-68
2022/05/22 05:08:08;;;;;;;;;;;;;;;;;;4388721;32;19962;-67
2022/05/22 05:10:33;;;;;;;;;;;;;;;;;;4377456;32;19961;-68
2022/05/22 05:13:00;;;;;;;;;;;;;;;;;;4376920;32;19948;-68
2022/05/22 05:15:25;;;;;;;;;;;;;;;;;;4378617;32;19976;-68
2022/05/22 05:17:50;;;;;;;;;;;;;;;;;;4385725;32;19938;-67
2022/05/22 05:20:16;;;;;;;;;;;;;;;;;;4362069;33;19981;-68
2022/05/22 05:22:42;;;;;;;;;;;;;;;;;;4362423;32;19942;-68
2022/05/22 05:25:07;;;;;;;;;;;;;;;;;;4372940;32;20289;-68
2022/05/22 05:27:32;;;;;;;;;;;;;;;;;;4362044;33;19990;-67
2022/05/22 05:29:57;;;;;;;;;;;;;;;;;;4362534;32;19939;-68
2022/05/22 05:32:22;;;;;;;;;;;;;;;;;;4363368;32;20025;-69
2022/05/22 05:34:47;;;;;;;;;;;;;;;;;;4374231;32;19993;-68
2022/05/22 05:37:12;;;;;;;;;;;;;;;;;;4361678;33;19981;-68
2022/05/22 05:39:37;;;;;;;;;;;;;;;;;;4373325;32;19985;-67
2022/05/22 05:42:03;;;;;;;;;;;;;;;;;;4376857;32;19934;-69
2022/05/22 05:44:28;;;;;;;;;;;;;;;;;;4376690;32;19934;-68
2022/05/22 05:46:53;;;;;;;;;;;;;;;;;;4377725;32;19934;-67
2022/05/22 05:49:18;;;;;;;;;;;;;;;;;;4377445;32;19952;-67
2022/05/22 05:51:43;;;;;;;;;;;;;;;;;;4355335;32;20001;-67
2022/05/22 05:54:08;;;;;;;;;;;;;;;;;;4350370;32;19962;-68
2022/05/22 05:56:33;;;;;;;;;;;;;;;;;;4361086;32;19939;-69
2022/05/22 05:58:58;;;;;;;;;;;;;;;;;;4363286;32;19935;-68
2022/05/22 06:01:24;;;;;;;;;;;;;;;;;;4362822;32;19935;-68
2022/05/22 06:03:49;;;;;;;;;;;;;;;;;;4372502;32;20304;-68
2022/05/22 06:06:14;;;;;;;;;;;;;;;;;;4364091;32;19942;-68
2022/05/22 06:08:39;;;;;;;;;;;;;;;;;;4377548;32;19938;-69
2022/05/22 06:11:04;;;;;;;;;;;;;;;;;;4376808;32;19938;-69
2022/05/22 06:13:29;;;;;;;;;;;;;;;;;;4376446;32;19934;-69
2022/05/22 06:15:54;;;;;;;;;;;;;;;;;;4377369;32;19942;-68
2022/05/22 06:18:19;;;;;;;;;;;;;;;;;;4376151;32;19931;-68
2022/05/22 06:20:44;;;;;;;;;;;;;;;;;;4388368;32;19942;-68
2022/05/22 06:23:10;;;;;;;;;;;;;;;;;;4377196;32;20233;-68
2022/05/22 06:25:35;;;;;;;;;;;;;;;;;;4369189;32;19969;-68
2022/05/22 06:28:01;;;;;;;;;;;;;;;;;;4361183;32;19946;-68
2022/05/22 06:30:26;;;;;;;;;;;;;;;;;;4361485;32;20292;-68
2022/05/22 06:32:51;;;;;;;;;;;;;;;;;;4372249;32;19949;-68
2022/05/22 06:35:16;;;;;;;;;;;;;;;;;;4371872;32;19942;-68
2022/05/22 06:37:41;;;;;;;;;;;;;;;;;;4372425;32;20272;-68
2022/05/22 06:40:06;;;;;;;;;;;;;;;;;;4386858;32;20021;-68
2022/05/22 06:42:32;;;;;;;;;;;;;;;;;;4376673;32;20384;-68
2022/05/22 06:44:57;;;;;;;;;;;;;;;;;;4376500;32;19993;-68
2022/05/22 06:47:23;;;;;;;;;;;;;;;;;;4376396;32;20000;-68
2022/05/22 06:49:48;;;;;;;;;;;;;;;;;;4375700;32;19946;-68
2022/05/22 06:52:13;;;;;;;;;;;;;;;;;;4377158;32;20071;-68
2022/05/22 06:54:39;;;;;;;;;;;;;;;;;;4375727;32;19952;-69
2022/05/22 06:57:04;;;;;;;;;;;;;;;;;;4377567;32;19942;-68
2022/05/22 06:59:29;;;;;;;;;;;;;;;;;;4375808;32;19949;-68
2022/05/22 07:01:54;;;;;;;;;;;;;;;;;;4375756;32;19938;-67
2022/05/22 07:04:22;;;;;;;;;;;;;;;;;;4377233;32;19996;-68
2022/05/22 07:06:47;;;;;;;;;;;;;;;;;;4375136;32;19946;-69
2022/05/22 07:09:12;;;;;;;;;;;;;;;;;;4376521;32;20001;-68
2022/05/22 07:11:40;;;;;;;;;;;;;;;;;;4375896;32;19994;-68
2022/05/22 07:14:05;;;;;;;;;;;;;;;;;;4376907;32;19998;-69
2022/05/22 07:16:31;;;;;;;;;;;;;;;;;;4371962;32;20940;-67
2022/05/22 07:18:56;;;;;;;;;;;;;;;;;;4366716;32;19976;-67
2022/05/22 07:21:21;;;;;;;;;;;;;;;;;;4370833;32;20020;-68
2022/05/22 07:23:46;;;;;;;;;;;;;;;;;;4363771;32;19943;-67
2022/05/22 07:26:12;;;;;;;;;;;;;;;;;;4360258;32;19938;-68
2022/05/22 07:28:37;;;;;;;;;;;;;;;;;;4372937;32;19934;-68
2022/05/22 07:31:02;;;;;;;;;;;;;;;;;;4362044;32;20348;-68
2022/05/22 07:33:27;;;;;;;;;;;;;;;;;;4386464;32;19972;-69
2022/05/22 07:35:53;;;;;;;;;;;;;;;;;;4375296;32;19969;-68
2022/05/22 07:38:18;;;;;;;;;;;;;;;;;;4376600;32;19986;-68
2022/05/22 07:40:43;;;;;;;;;;;;;;;;;;4375526;32;19934;-67
2022/05/22 07:43:08;;;;;;;;;;;;;;;;;;4375044;32;20265;-68
2022/05/22 07:45:33;;;;;;;;;;;;;;;;;;4375097;32;20000;-67
2022/05/22 07:48:00;;;;;;;;;;;;;;;;;;4375671;32;19980;-69
2022/05/22 07:50:25;;;;;;;;;;;;;;;;;;4374792;32;19946;-69
2022/05/22 07:52:50;;;;;;;;;;;;;;;;;;4365299;32;20300;-68
2022/05/22 07:55:15;;;;;;;;;;;;;;;;;;4361589;33;19939;-68
2022/05/22 07:57:40;;;;;;;;;;;;;;;;;;4361897;32;19939;-66
2022/05/22 08:00:06;;;;;;;;;;;;;;;;;;4362449;32;20288;-67
2022/05/22 08:02:31;;;;;;;;;;;;;;;;;;4368685;32;19939;-67
2022/05/22 08:04:56;;;;;;;;;;;;;;;;;;4355599;32;19934;-67
2022/05/22 08:07:21;;;;;;;;;;;;;;;;;;4360482;32;19957;-68
2022/05/22 08:09:46;;;;;;;;;;;;;;;;;;4373199;32;19957;-67
2022/05/22 08:12:11;;;;;;;;;;;;;;;;;;4375026;32;20316;-67
2022/05/22 08:14:36;;;;;;;;;;;;;;;;;;4375568;32;19945;-68
2022/05/22 08:17:02;;;;;;;;;;;;;;;;;;4365713;32;19980;-67
2022/05/22 08:19:27;;;;;;;;;;;;;;;;;;4375130;32;19942;-67
2022/05/22 08:21:53;;;;;;;;;;;;;;;;;;4373887;32;20245;-66
2022/05/22 08:24:18;;;;;;;;;;;;;;;;;;4362503;33;19934;-66
2022/05/22 08:26:43;;;;;;;;;;;;;;;;;;4363743;32;19978;-68
2022/05/22 08:29:08;;;;;;;;;;;;;;;;;;4363133;32;19943;-67
2022/05/22 08:31:33;;;;;;;;;;;;;;;;;;4365027;32;19962;-68
2022/05/22 08:33:58;;;;;;;;;;;;;;;;;;4363680;32;19934;-68
2022/05/22 08:36:24;;;;;;;;;;;;;;;;;;4377222;32;19984;-67
2022/05/22 08:38:49;;;;;;;;;;;;;;;;;;4388556;32;19950;-67
2022/05/22 08:41:15;;;;;;;;;;;;;;;;;;4388490;32;19937;-68
2022/05/22 08:43:40;;;;;;;;;;;;;;;;;;4378123;32;19976;-66
2022/05/22 08:46:05;;;;;;;;;;;;;;;;;;4361578;32;19987;-68
2022/05/22 08:48:30;;;;;;;;;;;;;;;;;;4368343;32;20020;-68
2022/05/22 08:50:55;;;;;;;;;;;;;;;;;;4362553;32;19942;-67
2022/05/22 08:53:21;;;;;;;;;;;;;;;;;;4360779;32;19973;-67
2022/05/22 09:01:17;;;;;;;;;;;;;;;;;;4361122;32;20343;-67
2022/05/22 09:03:42;;;;;;;;;;;;;;;;;;4360890;32;19986;-67
2022/05/22 09:06:07;;;;;;;;;;;;;;;;;;4359801;32;19953;-67
2022/05/22 09:08:32;;;;;;;;;;;;;;;;;;4359236;32;19982;-67
2022/05/22 09:10:57;;;;;;;;;;;;;;;;;;4358879;32;19938;-67
2022/05/22 09:13:23;;;;;;;;;;;;;;;;;;4360240;32;19939;-67
2022/05/22 09:15:48;;;;;;;;;;;;;;;;;;4372038;32;19961;-67
2022/05/22 09:18:13;;;;;;;;;;;;;;;;;;4361366;32;19977;-67
2022/05/22 09:20:38;;;;;;;;;;;;;;;;;;4367684;32;20362;-67
2022/05/22 09:23:03;;;;;;;;;;;;;;;;;;4385989;32;19995;-67
2022/05/22 09:25:28;;;;;;;;;;;;;;;;;;4375398;32;19935;-67
2022/05/22 09:27:53;;;;;;;;;;;;;;;;;;4375756;32;20316;-66
2022/05/22 09:30:18;;;;;;;;;;;;;;;;;;4376474;32;20008;-68
2022/05/22 09:32:44;;;;;;;;;;;;;;;;;;4377660;32;20272;-67
2022/05/22 09:35:09;;;;;;;;;;;;;;;;;;4367306;32;19973;-68
2022/05/22 09:37:34;;;;;;;;;;;;;;;;;;4361875;32;19950;-67
2022/05/22 09:39:59;;;;;;;;;;;;;;;;;;4360960;32;19934;-67
2022/05/22 09:42:24;;;;;;;;;;;;;;;;;;4372524;32;20070;-67
2022/05/22 09:44:49;;;;;;;;;;;;;;;;;;4367706;32;19942;-66
2022/05/22 09:47:14;;;;;;;;;;;;;;;;;;4387446;32;20061;-67
2022/05/22 09:49:40;;;;;;;;;;;;;;;;;;4375950;32;19934;-67
2022/05/22 09:52:05;;;;;;;;;;;;;;;;;;4376992;32;20339;-67
2022/05/22 09:54:30;;;;;;;;;;;;;;;;;;4387084;32;20075;-67
2022/05/22 09:56:55;;;;;;;;;;;;;;;;;;4376019;32;19934;-67
2022/05/22 09:59:21;;;;;;;;;;;;;;;;;;4375810;32;19934;-67
2022/05/22 10:01:46;;;;;;;;;;;;;;;;;;4377294;32;19958;-67
2022/05/22 10:04:11;;;;;;;;;;;;;;;;;;4374585;32;19949;-66
2022/05/22 10:06:36;;;;;;;;;;;;;;;;;;4376365;32;19949;-66
2022/05/22 10:09:01;;;;;;;;;;;;;;;;;;4375452;32;19938;-66
2022/05/22 10:11:27;;;;;;;;;;;;;;;;;;4375941;32;19999;-66
2022/05/22 10:13:52;;;;;;;;;;;;;;;;;;4387269;32;20332;-66
2022/05/22 10:16:17;;;;;;;;;;;;;;;;;;4388364;32;20320;-67
2022/05/22 10:18:42;;;;;;;;;;;;;;;;;;4387148;32;20382;-66
2022/05/22 10:21:07;;;;;;;;;;;;;;;;;;4372533;32;19947;-66
2022/05/22 10:23:32;;;;;;;;;;;;;;;;;;4372092;32;19989;-67
2022/05/22 10:25:57;;;;;;;;;;;;;;;;;;4372652;32;19942;-68
2022/05/22 10:28:22;;;;;;;;;;;;;;;;;;4371370;32;19985;-67
2022/05/22 10:30:47;;;;;;;;;;;;;;;;;;4372041;32;19946;-66
2022/05/22 10:33:13;;;;;;;;;;;;;;;;;;4361847;32;20060;-67
2022/05/22 10:35:38;;;;;;;;;;;;;;;;;;4361132;32;19945;-65
2022/05/22 10:38:03;;;;;;;;;;;;;;;;;;4363231;32;20019;-67
2022/05/22 10:42:44;;;;;;;;;;;;;;;;;;4357660;32;20433;-67
2022/05/22 10:43:13;;;;;;;;;;;;;;;;;;4359866;32;19970;-66
2022/05/22 10:45:38;;;;;;;;;;;;;;;;;;4357280;32;19943;-67
2022/05/22 10:48:03;;;;;;;;;;;;;;;;;;4357604;33;20008;-67
2022/05/22 10:50:28;;;;;;;;;;;;;;;;;;4357396;32;19985;-66
2022/05/22 10:52:54;;;;;;;;;;;;;;;;;;4358985;32;20020;-67
2022/05/22 10:55:19;;;;;;;;;;;;;;;;;;4359389;32;19938;-66
2022/05/22 10:57:44;;;;;;;;;;;;;;;;;;4359144;32;19973;-68
2022/05/22 11:00:09;;;;;;;;;;;;;;;;;;4358848;32;19966;-67
2022/05/22 11:02:34;;;;;;;;;;;;;;;;;;4359378;32;19938;-67
2022/05/22 11:04:59;;;;;;;;;;;;;;;;;;4358629;33;19973;-66
2022/05/22 11:07:24;;;;;;;;;;;;;;;;;;4363273;32;20013;-66
2022/05/22 11:09:50;;;;;;;;;;;;;;;;;;4386332;32;19942;-66
2022/05/22 11:12:15;;;;;;;;;;;;;;;;;;4375184;32;19945;-68
2022/05/22 11:14:40;;;;;;;;;;;;;;;;;;4375352;32;19973;-66
2022/05/22 11:17:05;;;;;;;;;;;;;;;;;;4373399;32;19935;-67
2022/05/22 11:19:30;;;;;;;;;;;;;;;;;;4372027;32;19942;-67
2022/05/22 11:21:55;;;;;;;;;;;;;;;;;;4375025;32;19997;-67
2022/05/22 11:24:20;;;;;;;;;;;;;;;;;;4370868;32;19942;-67
2022/05/22 11:26:46;;;;;;;;;;;;;;;;;;4374141;32;19934;-67
2022/05/22 11:29:11;;;;;;;;;;;;;;;;;;4374561;32;19953;-67
2022/05/22 11:31:36;;;;;;;;;;;;;;;;;;4373037;32;19934;-67
2022/05/22 11:34:01;;;;;;;;;;;;;;;;;;4371337;32;19939;-67
2022/05/22 11:36:27;;;;;;;;;;;;;;;;;;4360248;32;19953;-67
2022/05/22 11:38:52;;;;;;;;;;;;;;;;;;4359420;33;19947;-67
2022/05/22 11:41:17;;;;;;;;;;;;;;;;;;4362382;32;19931;-67
2022/05/22 11:43:44;;;;;;;;;;;;;;;;;;4360444;33;19943;-67
2022/05/22 11:46:09;;;;;;;;;;;;;;;;;;4360079;32;19949;-66
2022/05/22 11:48:34;;;;;;;;;;;;;;;;;;4372549;32;20261;-68
2022/05/22 11:50:59;;;;;;;;;;;;;;;;;;4371145;32;20358;-67
2022/05/22 11:53:25;;;;;;;;;;;;;;;;;;4362224;32;19951;-68
2022/05/22 11:55:50;;;;;;;;;;;;;;;;;;4370067;32;19939;-67
2022/05/22 11:58:15;;;;;;;;;;;;;;;;;;4379175;32;19985;-68
2022/05/22 12:00:40;;;;;;;;;;;;;;;;;;4390366;32;19938;-70
2022/05/22 12:03:06;;;;;;;;;;;;;;;;;;4365626;32;19935;-69
2022/05/22 12:05:31;;;;;;;;;;;;;;;;;;4362886;32;19946;-70
2022/05/22 12:07:57;;;;;;;;;;;;;;;;;;4373669;32;19938;-70
2022/05/22 12:10:22;;;;;;;;;;;;;;;;;;4363715;32;19946;-69
2022/05/22 12:12:47;;;;;;;;;;;;;;;;;;4364835;32;19973;-69
2022/05/22 12:15:12;;;;;;;;;;;;;;;;;;4373653;32;19942;-69
2022/05/22 12:17:37;;;;;;;;;;;;;;;;;;4361532;32;19946;-69
2022/05/22 12:20:02;;;;;;;;;;;;;;;;;;4364755;32;19993;-69
2022/05/22 12:25:11;;;;;;;;;;;;;;;;;;4378443;32;19956;-69
2022/05/22 12:27:36;;;;;;;;;;;;;;;;;;4388627;32;19942;-69
2022/05/22 12:30:02;;;;;;;;;;;;;;;;;;4377431;32;19938;-69
2022/05/22 12:32:28;;;;;;;;;;;;;;;;;;4378270;32;19945;-68
2022/05/22 12:34:53;;;;;;;;;;;;;;;;;;4376910;32;20008;-69
2022/05/22 12:37:18;;;;;;;;;;;;;;;;;;4375870;32;19939;-69
2022/05/22 12:39:43;;;;;;;;;;;;;;;;;;4388003;32;20004;-68
2022/05/22 12:42:08;;;;;;;;;;;;;;;;;;4378550;32;19952;-68
2022/05/22 12:44:33;;;;;;;;;;;;;;;;;;4378319;32;19950;-69
2022/05/22 12:46:58;;;;;;;;;;;;;;;;;;4377299;32;20067;-68
2022/05/22 12:49:23;;;;;;;;;;;;;;;;;;4379534;32;19977;-69
2022/05/22 12:51:49;;;;;;;;;;;;;;;;;;4347952;33;19953;-68
2022/05/22 12:54:14;;;;;;;;;;;;;;;;;;4355592;32;20250;-68
2022/05/22 12:56:39;;;;;;;;;;;;;;;;;;4362226;33;20276;-69
2022/05/22 12:59:05;;;;;;;;;;;;;;;;;;4377240;32;19949;-69
2022/05/22 13:01:30;;;;;;;;;;;;;;;;;;4376783;32;20270;-70
2022/05/22 13:03:55;;;;;;;;;;;;;;;;;;4369785;32;19949;-70
2022/05/22 13:06:21;;;;;;;;;;;;;;;;;;4363855;32;20268;-70
2022/05/22 13:08:46;;;;;;;;;;;;;;;;;;4374575;32;19954;-69
2022/05/22 13:11:11;;;;;;;;;;;;;;;;;;4375336;32;19987;-69
2022/05/22 13:13:36;;;;;;;;;;;;;;;;;;4366157;32;19939;-69
2022/05/22 13:16:01;;;;;;;;;;;;;;;;;;4358888;32;19938;-69
2022/05/22 13:18:28;;;;;;;;;;;;;;;;;;4348474;32;19973;-69
2022/05/22 13:20:53;;;;;;;;;;;;;;;;;;4347353;32;19997;-69
2022/05/22 13:23:18;;;;;;;;;;;;;;;;;;4346690;32;19939;-70
2022/05/22 13:25:43;;;;;;;;;;;;;;;;;;4359861;32;19989;-70
2022/05/22 13:28:08;;;;;;;;;;;;;;;;;;4363086;32;19979;-69
2022/05/22 13:30:33;;;;;;;;;;;;;;;;;;4373353;32;19942;-69
2022/05/22 13:32:59;;;;;;;;;;;;;;;;;;4372598;32;19938;-69
2022/05/22 13:35:24;;;;;;;;;;;;;;;;;;4373909;32;19939;-69
2022/05/22 13:37:49;;;;;;;;;;;;;;;;;;4372832;32;19938;-69
2022/05/22 13:40:14;;;;;;;;;;;;;;;;;;4374435;32;19972;-70
2022/05/22 13:42:39;;;;;;;;;;;;;;;;;;4376109;32;19978;-69
2022/05/22 13:45:04;;;;;;;;;;;;;;;;;;4377200;32;19972;-69
2022/05/22 13:47:29;;;;;;;;;;;;;;;;;;4375246;32;19953;-69
2022/05/22 13:52:34;;;;;;;;;;;;;;;;;;4378100;32;19962;-69
2022/05/22 13:52:39;;;;;;;;;;;;;;;;;;4377353;32;19930;-69
2022/05/22 13:55:04;;;;;;;;;;;;;;;;;;4377720;32;20009;-68
2022/05/22 13:57:30;;;;;;;;;;;;;;;;;;4378161;32;19934;-70
2022/05/22 13:59:55;;;;;;;;;;;;;;;;;;4380134;32;19973;-69
2022/05/22 14:02:20;;;;;;;;;;;;;;;;;;4347356;33;20321;-68
2022/05/22 14:04:45;;;;;;;;;;;;;;;;;;4370394;32;19939;-70
2022/05/22 14:07:10;;;;;;;;;;;;;;;;;;4346758;33;19943;-69
2022/05/22 14:09:35;;;;;;;;;;;;;;;;;;4346196;33;20302;-69
2022/05/22 14:12:00;;;;;;;;;;;;;;;;;;4384919;32;19938;-69
2022/05/22 14:14:26;;;;;;;;;;;;;;;;;;4376005;32;20312;-69
2022/05/22 14:16:51;;;;;;;;;;;;;;;;;;4387658;32;19969;-68
2022/05/22 14:19:16;;;;;;;;;;;;;;;;;;4376521;32;20025;-69
2022/05/22 14:21:41;;;;;;;;;;;;;;;;;;4377644;32;19972;-69
2022/05/22 14:26:50;;;;;;;;;;;;;;;;;;4376919;32;19933;-68
2022/05/22 14:29:15;;;;;;;;;;;;;;;;;;4385559;32;19957;-68
2022/05/22 14:31:40;;;;;;;;;;;;;;;;;;4376503;32;19957;-69
2022/05/22 14:34:06;;;;;;;;;;;;;;;;;;4376306;32;19992;-69
2022/05/22 14:36:31;;;;;;;;;;;;;;;;;;4375958;32;19938;-68
2022/05/22 14:38:57;;;;;;;;;;;;;;;;;;4376634;32;19938;-69
2022/05/22 14:41:22;;;;;;;;;;;;;;;;;;4363870;32;19998;-69
2022/05/22 14:43:48;;;;;;;;;;;;;;;;;;4371347;32;20326;-69
2022/05/22 14:46:13;;;;;;;;;;;;;;;;;;4360769;32;19939;-69
2022/05/22 14:48:38;;;;;;;;;;;;;;;;;;4361370;32;20377;-69
2022/05/22 14:51:03;;;;;;;;;;;;;;;;;;4372785;32;19989;-69
2022/05/22 14:53:29;;;;;;;;;;;;;;;;;;4361613;32;19938;-69
2022/05/22 14:55:54;;;;;;;;;;;;;;;;;;4361231;32;19992;-69
2022/05/22 14:58:19;;;;;;;;;;;;;;;;;;4362833;32;20305;-70
2022/05/22 15:00:44;;;;;;;;;;;;;;;;;;4371657;32;20321;-69
2022/05/22 15:03:09;;;;;;;;;;;;;;;;;;4374005;32;20308;-70
2022/05/22 15:05:35;;;;;;;;;;;;;;;;;;4386695;32;19938;-68
2022/05/22 15:08:01;;;;;;;;;;;;;;;;;;4386566;32;19984;-68
2022/05/22 15:10:26;;;;;;;;;;;;;;;;;;4370823;32;19939;-68
2022/05/22 15:12:51;;;;;;;;;;;;;;;;;;4361899;32;19943;-69
2022/05/22 15:15:17;;;;;;;;;;;;;;;;;;4369917;32;19935;-69
2022/05/22 15:17:42;;;;;;;;;;;;;;;;;;4387916;32;19970;-68
2022/05/22 15:20:07;;;;;;;;;;;;;;;;;;4387484;32;19949;-69
2022/05/22 15:25:28;;;;;;;;;;;;;;;;;;4376749;32;19956;-69
2022/05/22 15:27:53;;;;;;;;;;;;;;;;;;4374587;32;19991;-69
2022/05/22 15:30:19;;;;;;;;;;;;;;;;;;4363579;32;20253;-69
2022/05/22 15:32:45;;;;;;;;;;;;;;;;;;4360457;32;19939;-70
2022/05/22 15:35:11;;;;;;;;;;;;;;;;;;4372529;32;19998;-68
2022/05/22 15:37:36;;;;;;;;;;;;;;;;;;4364115;32;19945;-69
2022/05/22 15:40:01;;;;;;;;;;;;;;;;;;4373868;32;19942;-69
2022/05/22 15:42:26;;;;;;;;;;;;;;;;;;4375034;32;20332;-68
2022/05/22 15:44:51;;;;;;;;;;;;;;;;;;4375882;32;19950;-70
2022/05/22 15:47:20;;;;;;;;;;;;;;;;;;4375920;32;20280;-69
2022/05/22 15:52:30;;;;;;;;;;;;;;;;;;4374861;32;20303;-69
2022/05/22 15:54:56;;;;;;;;;;;;;;;;;;4374678;32;19997;-69
2022/05/22 15:57:21;;;;;;;;;;;;;;;;;;4386428;32;19930;-69
2022/05/22 15:59:48;;;;;;;;;;;;;;;;;;4374864;32;19946;-69
2022/05/22 16:02:13;;;;;;;;;;;;;;;;;;4376093;32;20339;-69
2022/05/22 16:04:38;;;;;;;;;;;;;;;;;;4374994;32;19942;-69
2022/05/22 16:07:03;;;;;;;;;;;;;;;;;;4385472;32;19977;-68
2022/05/22 16:09:29;;;;;;;;;;;;;;;;;;4384731;32;19949;-69
2022/05/22 16:11:54;;;;;;;;;;;;;;;;;;4361270;33;19957;-69
2022/05/22 16:14:19;;;;;;;;;;;;;;;;;;4366545;32;19934;-69
2022/05/22 16:16:44;;;;;;;;;;;;;;;;;;4386047;32;20276;-69
2022/05/22 16:19:09;;;;;;;;;;;;;;;;;;4385867;32;20424;-69
2022/05/22 16:21:34;;;;;;;;;;;;;;;;;;4386945;32;19982;-67
2022/05/22 16:23:59;;;;;;;;;;;;;;;;;;4386089;32;19949;-69
2022/05/22 16:26:24;;;;;;;;;;;;;;;;;;4375084;32;19941;-68
2022/05/22 16:28:51;;;;;;;;;;;;;;;;;;4374603;32;19946;-69
2022/05/22 16:31:16;;;;;;;;;;;;;;;;;;4385835;32;19970;-68
2022/05/22 16:33:41;;;;;;;;;;;;;;;;;;4375073;32;19949;-68
2022/05/22 16:36:06;;;;;;;;;;;;;;;;;;4376428;32;19942;-69
2022/05/22 16:38:31;;;;;;;;;;;;;;;;;;4365027;32;19934;-69
2022/05/22 16:40:56;;;;;;;;;;;;;;;;;;4372112;32;19944;-69
2022/05/22 16:43:21;;;;;;;;;;;;;;;;;;4378597;32;19972;-68
2022/05/22 16:45:46;;;;;;;;;;;;;;;;;;4388600;32;19949;-68
2022/05/22 16:53:40;;;;;;;;;;;;;;;;;;4365179;32;19969;-69
2022/05/22 16:56:05;;;;;;;;;;;;;;;;;;4374181;32;19935;-69